Data for 11/04/2010

Time Sea-Level Adjusted Pressure Absolute Pressure Temperature Relative Humidity Dew Point   
(mb) (inHg) (mb) (inHg) (C) (F) (%) (C) (F)
00:05 1031 30.45 860 25.4 3.8 38.9 58 -3.7 25.4
00:10 1031 30.45 860 25.4 3.8 38.8 59 -3.4 25.8
00:15 1031 30.45 860 25.4 3.6 38.5 59 -3.7 25.3
00:20 1031 30.45 860 25.4 3.7 38.6 59 -3.7 25.4
00:25 1031 30.45 860 25.4 3.2 37.8 61 -3.6 25.5
00:30 1031 30.45 860 25.4 3 37.3 61 -3.8 25.2
00:35 1031 30.45 860 25.4 3 37.5 62 -3.6 25.6
00:40 1031 30.45 860 25.4 2.6 36.6 63 -3.9 25.1
00:45 1031 30.45 860 25.4 2.3 36.2 62 -4.1 24.5
00:50 1031 30.45 860 25.4 2.9 37.1 59 -4.3 24.3
00:55 1031 30.45 860 25.4 3.4 38.2 58 -4.1 24.7
01:00 1031 30.45 860 25.4 3.6 38.4 58 -3.9 24.9
01:05 1031 30.45 860 25.4 3.5 38.2 58 -4 24.8
01:10 1031 30.45 860 25.4 3.3 38 59 -4 24.8
01:15 1031 30.45 860 25.4 3.3 38 59 -3.8 25.1
01:20 1031 30.45 860 25.4 3 37.3 58 -4.5 23.8
01:25 1031 30.45 860 25.4 2.9 37.2 57 -4.8 23.4
01:30 1031 30.45 860 25.4 2.9 37.3 57 -4.7 23.5
01:35 1031 30.45 860 25.4 2.8 37.1 56 -5.1 22.9
01:40 1031 30.45 860 25.4 3 37.3 56 -5 23
01:45 1031 30.45 860 25.4 3.2 37.8 53 -5.4 22.2
01:50 1031 30.45 860 25.4 3.5 38.2 55 -4.6 23.7
01:55 1030 30.42 860 25.4 3.5 38.2 57 -4.2 24.4
02:00 1031 30.45 860 25.4 3.4 38 57 -4.3 24.3
02:05 1030 30.42 860 25.4 3.4 38.2 56 -4.4 24
02:10 1030 30.42 860 25.4 3.5 38.4 55 -4.6 23.8
02:15 1030 30.42 860 25.4 3.6 38.4 57 -4.1 24.6
02:20 1030 30.42 860 25.4 3.9 39.1 56 -4.1 24.7
02:25 1030 30.42 859 25.37 4 39.3 56 -3.9 25
02:30 1030 30.42 859 25.37 3.6 38.5 58 -3.9 25
02:35 1030 30.42 859 25.37 3.2 37.8 59 -4 24.8
02:40 1030 30.42 859 25.37 3 37.4 59 -4.2 24.4
02:45 1030 30.42 859 25.37 2.6 36.6 61 -4.1 24.6
02:50 1030 30.42 859 25.37 2.4 36.3 62 -4.2 24.5
02:55 1030 30.42 859 25.37 2.3 36.1 62 -4.2 24.4
03:00 1030 30.42 859 25.37 2.1 35.7 63 -4.2 24.5
03:05 1030 30.42 859 25.37 2.1 35.7 62 -4.5 24
03:10 1030 30.42 859 25.37 2.3 36.1 61 -4.4 24.1
03:15 1030 30.42 859 25.37 2.6 36.7 60 -4.4 24.2
03:20 1030 30.42 859 25.37 2.4 36.3 61 -4.3 24.3
03:25 1030 30.42 859 25.37 2.1 35.7 63 -4.3 24.3
03:30 1030 30.42 859 25.37 1.7 35.1 64 -4.3 24.2
03:35 1029 30.39 859 25.37 1.9 35.3 64 -4.3 24.2
03:40 1029 30.39 859 25.37 1.9 35.5 63 -4.4 24.1
03:45 1029 30.39 859 25.37 1.8 35.2 64 -4.3 24.2
03:50 1029 30.39 859 25.37 1.6 34.8 64 -4.6 23.8
03:55 1029 30.39 858 25.34 1.9 35.3 62 -4.7 23.6
04:00 1029 30.39 859 25.37 2.2 36 59 -4.9 23.2
04:05 1029 30.39 859 25.37 2.6 36.6 58 -4.9 23.1
04:10 1029 30.39 859 25.37 2.7 36.9 57 -5.1 22.9
04:15 1029 30.39 859 25.37 2.1 35.8 57 -5.4 22.2
04:20 1029 30.39 859 25.37 1.8 35.3 57 -5.8 21.5
04:25 1029 30.39 858 25.34 1.6 34.9 58 -5.8 21.6
04:30 1029 30.39 858 25.34 1.5 34.8 58 -5.9 21.4
04:35 1029 30.39 859 25.37 1.7 35.1 57 -6 21.3
04:40 1029 30.39 858 25.34 1.4 34.5 59 -5.7 21.7
04:45 1029 30.39 858 25.34 0.7 33.3 63 -5.5 22.2
04:50 1029 30.39 858 25.34 0.3 32.6 65 -5.4 22.2
04:55 1029 30.39 858 25.34 1.1 33.9 64 -5.1 22.9
05:00 1029 30.39 858 25.34 1 33.8 65 -4.8 23.3
05:05 1029 30.39 858 25.34 1 33.8 65 -4.8 23.3
05:10 1029 30.39 858 25.34 1.1 34 65 -4.7 23.6
05:15 1029 30.39 858 25.34 0.9 33.7 66 -4.7 23.5
05:20 1029 30.39 858 25.34 0.9 33.7 65 -5 23.1
05:25 1029 30.39 858 25.34 1.2 34.2 64 -4.9 23.1
05:30 1028 30.36 858 25.34 1.1 33.9 64 -4.9 23.1
05:35 1028 30.36 858 25.34 1.2 34.2 62 -5.2 22.7
05:40 1028 30.36 858 25.34 1.4 34.5 64 -4.8 23.4
05:45 1028 30.36 857 25.31 1.4 34.4 64 -4.8 23.3
05:50 1028 30.36 857 25.31 1.2 34.1 63 -5.1 22.9
05:55 1028 30.36 857 25.31 1 33.7 64 -5 23
06:00 1028 30.36 857 25.31 1 33.8 63 -5.3 22.5
06:05 1028 30.36 857 25.31 1.8 35.2 59 -5.3 22.5
06:10 1028 30.36 857 25.31 2.4 36.4 57 -5.1 22.7
06:15 1028 30.36 857 25.31 2.4 36.3 57 -5.3 22.5
06:20 1028 30.36 857 25.31 2.5 36.5 55 -5.7 21.8
06:25 1028 30.36 857 25.31 2 35.6 58 -5.4 22.3
06:30 1028 30.36 857 25.31 0.7 33.3 62 -5.7 21.8
06:35 1028 30.36 857 25.31 0.1 32.2 63 -6 21.1
06:40 1028 30.36 857 25.31 -0.1 31.8 65 -5.9 21.3
06:45 1028 30.36 857 25.31 -0.2 31.6 66 -5.9 21.4
06:50 1028 30.36 857 25.31 0.5 32.9 62 -6 21.1
06:55 1028 30.36 857 25.31 1.3 34.3 63 -5.1 22.9
07:00 1028 30.36 857 25.31 1.3 34.4 63 -5.1 22.9
07:05 1028 30.36 857 25.31 1.5 34.6 62 -5 23
07:10 1028 30.36 857 25.31 1.4 34.6 62 -5 23.1
07:15 1028 30.36 857 25.31 1.3 34.3 63 -5 23.1
07:20 1028 30.36 857 25.31 2.1 35.7 58 -5.4 22.2
07:25 1028 30.36 857 25.31 1.5 34.6 62 -5.1 22.9
07:30 1028 30.36 857 25.31 0.6 33 63 -5.7 21.7
07:35 1028 30.36 857 25.31 1 33.8 60 -6 21.3
07:40 1028 30.36 857 25.31 1.2 34.2 56 -6.5 20.3
07:45 1028 30.36 857 25.31 1.2 34.2 58 -6.3 20.7
07:50 1028 30.36 857 25.31 0.9 33.6 59 -6.3 20.6
07:55 1028 30.36 857 25.31 0.9 33.7 58 -6.3 20.6
08:00 1028 30.36 857 25.31 0.8 33.4 60 -6.1 21.1
08:05 1028 30.36 857 25.31 0.3 32.6 65 -5.6 22
08:10 1028 30.36 857 25.31 0.6 33.1 58 -6.7 20
08:15 1028 30.36 857 25.31 0.9 33.7 60 -6 21.1
08:20 1028 30.36 857 25.31 0.5 32.9 62 -6 21.2
08:25 1028 30.36 857 25.31 0.3 32.6 61 -6.3 20.6
08:30 1028 30.36 857 25.31 0.3 32.6 62 -6.2 20.9
08:35 1028 30.36 857 25.31 0.1 32.2 61 -6.6 20.1
08:40 1028 30.36 857 25.31 1.1 33.9 57 -6.5 20.3
08:45 1028 30.36 857 25.31 1.3 34.3 57 -6.4 20.5
08:50 1028 30.36 857 25.31 1.7 35.1 57 -6 21.2
08:55 1028 30.36 857 25.31 1.7 35 57 -6 21.1
09:00 1028 30.36 857 25.31 1.9 35.4 55 -6.1 21
09:05 1028 30.36 857 25.31 2.3 36.2 53 -6.2 20.8
09:10 1028 30.36 857 25.31 2.9 37.1 51 -6.2 20.9
09:15 1028 30.36 857 25.31 3.2 37.7 51 -6.1 21.1
09:20 1028 30.36 857 25.31 3.4 38.1 51 -5.9 21.4
09:25 1028 30.36 857 25.31 3.4 38.1 51 -5.8 21.5
09:30 1028 30.36 857 25.31 3.5 38.3 51 -5.8 21.6
09:35 1028 30.36 857 25.31 3.6 38.5 51 -5.5 22.1
09:40 1028 30.36 857 25.31 3.4 38.1 52 -5.5 22.1
09:45 1028 30.36 857 25.31 3.7 38.7 51 -5.6 22
09:50 1028 30.36 857 25.31 3.9 39.1 50 -5.6 21.9
09:55 1028 30.36 857 25.31 4.8 40.6 48 -5.4 22.2
10:00 1028 30.36 857 25.31 4.9 40.8 49 -4.9 23.2
10:05 1028 30.36 857 25.31 5.4 41.7 46 -5.4 22.3
10:10 1028 30.36 857 25.31 6.1 43 44 -5.2 22.7
10:15 1028 30.36 857 25.31 6.4 43.5 44 -5.1 22.9
10:20 1028 30.36 857 25.31 6.2 43.1 44 -5.3 22.5
10:25 1028 30.36 857 25.31 6.3 43.4 43 -5.3 22.5
10:30 1027 30.33 857 25.31 6.6 43.8 43 -5.3 22.5
10:35 1028 30.36 857 25.31 6.9 44.4 40 -5.8 21.5
10:40 1028 30.36 857 25.31 7.4 45.3 39 -5.7 21.8
10:45 1028 30.36 857 25.31 7.6 45.6 41 -4.9 23.2
10:50 1028 30.36 857 25.31 7.1 44.7 43 -4.6 23.8
10:55 1028 30.36 857 25.31 6.5 43.7 43 -5.1 22.9
11:00 1027 30.33 857 25.31 7 44.6 42 -5.1 22.8
11:05 1027 30.33 857 25.31 8 46.4 38 -5.4 22.3
11:10 1027 30.33 857 25.31 8.3 46.9 39 -4.7 23.5
11:15 1027 30.33 857 25.31 8.4 47.2 39 -4.7 23.5
11:20 1027 30.33 857 25.31 8.9 48.1 39 -4.2 24.4
11:25 1027 30.33 856 25.28 8 46.5 43 -3.7 25.4
11:30 1027 30.33 856 25.28 7.5 45.4 46 -3.5 25.6
11:35 1027 30.33 856 25.28 8.1 46.5 42 -4.1 24.7
11:40 1027 30.33 856 25.28 7.7 45.9 43 -3.9 25
11:45 1027 30.33 856 25.28 7.4 45.4 45 -3.7 25.4
11:50 1027 30.33 856 25.28 7.4 45.2 44 -4.2 24.5
11:55 1027 30.33 856 25.28 8.5 47.2 41 -3.9 25
12:00 1027 30.33 856 25.28 9.4 48.9 39 -3.9 25
12:05 1027 30.33 856 25.28 9.3 48.8 40 -3.7 25.4
12:10 1027 30.33 856 25.28 10.1 50.1 37 -3.8 25.2
12:15 1027 30.33 856 25.28 10.1 50.2 39 -3.3 26.1
12:20 1027 30.33 856 25.28 9.6 49.2 40 -3.5 25.7
12:25 1027 30.33 856 25.28 9.2 48.5 41 -3.5 25.8
12:30 1027 30.33 856 25.28 9.5 49.1 40 -3.5 25.6
12:35 1026 30.3 856 25.28 10 49.9 39 -3.3 26.1
12:40 1026 30.3 856 25.28 10.2 50.4 36 -4.3 24.3
12:45 1026 30.3 855 25.25 11.3 52.4 35 -3.7 25.4
12:50 1026 30.3 855 25.25 11.4 52.6 35 -3.3 26
12:55 1026 30.3 855 25.25 10.6 51 36 -4 24.8
13:00 1026 30.3 855 25.25 11.1 52 34 -4 24.9
13:05 1026 30.3 855 25.25 11.6 52.9 34 -3.7 25.4
13:10 1026 30.3 855 25.25 11.4 52.6 33 -4.1 24.6
13:15 1026 30.3 855 25.25 12.3 54.2 31 -4.1 24.5
13:20 1026 30.3 855 25.25 12.6 54.6 31 -4 24.8
13:25 1026 30.3 855 25.25 11.8 53.3 33 -4 24.8
13:30 1026 30.3 855 25.25 12 53.5 32 -4.2 24.4
13:35 1026 30.3 855 25.25 12.9 55.1 30 -4 24.8
13:40 1025 30.27 855 25.25 13 55.5 32 -3.4 25.8
13:45 1025 30.27 855 25.25 13.3 55.9 30 -3.9 24.9
13:50 1025 30.27 855 25.25 13.5 56.3 30 -3.8 25.1
13:55 1025 30.27 855 25.25 13.6 56.5 29 -4 24.9
14:00 1025 30.27 855 25.25 13.9 57 29 -3.7 25.3
14:05 1025 30.27 854 25.22 13.1 55.5 31 -3.7 25.3
14:10 1025 30.27 854 25.22 13 55.5 31 -3.8 25.2
14:15 1025 30.27 854 25.22 13.2 55.7 29 -4.2 24.5
14:20 1025 30.27 854 25.22 13.6 56.4 29 -4 24.9
14:25 1025 30.27 854 25.22 13.5 56.3 30 -3.9 25.1
14:30 1025 30.27 854 25.22 12.6 54.7 32 -3.5 25.7
14:35 1025 30.27 854 25.22 12.4 54.2 32 -4 24.8
14:40 1025 30.27 854 25.22 13.1 55.6 30 -4.2 24.5
14:45 1025 30.27 854 25.22 14.4 57.9 27 -4.3 24.2
14:50 1025 30.27 854 25.22 14.4 57.8 27 -4.1 24.6
14:55 1024 30.24 854 25.22 14.2 57.5 28 -4 24.8
15:00 1024 30.24 854 25.22 14.4 57.8 28 -3.8 25.2
15:05 1024 30.24 854 25.22 14.4 57.9 27 -4.1 24.6
15:10 1024 30.24 854 25.22 14.3 57.8 27 -4.1 24.6
15:15 1024 30.24 853 25.19 14.6 58.2 26 -4.4 24.1
15:20 1024 30.24 853 25.19 14.8 58.6 26 -4.3 24.3
15:25 1024 30.24 853 25.19 14.8 58.6 27 -4.1 24.7
15:30 1024 30.24 853 25.19 15.2 59.4 24 -4.9 23.2
15:35 1024 30.24 853 25.19 15.5 60 26 -3.9 24.9
15:40 1024 30.24 853 25.19 14.7 58.4 26 -4.7 23.5
15:45 1024 30.24 853 25.19 15.3 59.5 24 -5.1 22.8
15:50 1024 30.24 853 25.19 15.4 59.8 25 -4.3 24.3
15:55 1024 30.24 853 25.19 15.6 60 23 -5.6 22
16:00 1024 30.24 853 25.19 15.7 60.2 23 -5.5 22.1
16:05 1024 30.24 853 25.19 16 60.8 23 -5 22.9
16:10 1024 30.24 853 25.19 15.9 60.6 22 -5.6 22
16:15 1024 30.24 853 25.19 16.1 60.9 23 -4.9 23.1
16:20 1024 30.24 853 25.19 15.7 60.2 24 -4.8 23.4
16:25 1024 30.24 853 25.19 14.7 58.5 25 -4.9 23.2
16:30 1024 30.24 853 25.19 15.2 59.4 25 -4.6 23.6
16:35 1024 30.24 853 25.19 15.4 59.7 25 -4.6 23.7
16:40 1024 30.24 853 25.19 14.7 58.5 26 -4.7 23.6
16:45 1024 30.24 853 25.19 14.6 58.3 26 -4.7 23.5
16:50 1023 30.21 853 25.19 14.8 58.6 25 -4.9 23.2
16:55 1023 30.21 853 25.19 15 59.1 25 -4.5 23.8
17:00 1023 30.21 853 25.19 15.4 59.7 25 -4.4 24
17:05 1023 30.21 853 25.19 15.5 59.9 24 -4.6 23.6
17:10 1023 30.21 852 25.16 15.4 59.8 25 -4.3 24.2
17:15 1023 30.21 852 25.16 15 59 26 -4.4 24
17:20 1023 30.21 852 25.16 14.7 58.4 26 -4.6 23.6
17:25 1023 30.21 852 25.16 14.8 58.6 26 -4.5 23.9
17:30 1023 30.21 852 25.16 14.8 58.6 27 -3.7 25.3
17:35 1023 30.21 852 25.16 14.5 58.1 28 -3.5 25.6
17:40 1023 30.21 852 25.16 14.1 57.4 28 -4.1 24.6
17:45 1023 30.21 852 25.16 13.7 56.7 28 -4.3 24.2
17:50 1023 30.21 852 25.16 13.6 56.5 28 -4.3 24.2
17:55 1023 30.21 852 25.16 13.3 55.9 28 -4.6 23.7
18:00 1023 30.21 852 25.16 12.9 55.3 29 -4.5 23.9
18:05 1023 30.21 852 25.16 12.8 55 29 -4.7 23.6
18:10 1023 30.21 852 25.16 12.4 54.3 34 -3.1 26.3
18:15 1023 30.21 852 25.16 12.1 53.8 33 -3.8 25.1
18:20 1023 30.21 852 25.16 12.1 53.8 33 -3.6 25.6
18:25 1023 30.21 852 25.16 11.9 53.5 33 -3.9 25
18:30 1023 30.21 852 25.16 11.3 52.3 34 -4 24.8
18:35 1023 30.21 852 25.16 10.5 51 37 -3.6 25.6
18:40 1023 30.21 852 25.16 10.1 50.2 38 -3.5 25.8
18:45 1023 30.21 852 25.16 9.7 49.4 39 -3.6 25.6
18:50 1023 30.21 852 25.16 9.8 49.6 39 -3.4 26
18:55 1023 30.21 852 25.16 9.5 49.1 41 -3.1 26.4
19:00 1023 30.21 852 25.16 9.1 48.4 42 -3.1 26.3
19:05 1023 30.21 852 25.16 8.9 47.9 44 -2.6 27.3
19:10 1023 30.21 852 25.16 8.7 47.7 44 -2.9 26.8
19:15 1023 30.21 852 25.16 8.7 47.6 43 -3.1 26.4
19:20 1023 30.21 852 25.16 9 48.1 41 -3.4 25.9
19:25 1023 30.21 852 25.16 9.4 48.9 39 -3.9 25
19:30 1023 30.21 852 25.16 9.9 49.8 38 -3.7 25.4
19:35 1023 30.21 852 25.16 9.8 49.6 39 -3.5 25.8
19:40 1023 30.21 852 25.16 9.4 49 42 -2.9 26.8
19:45 1023 30.21 852 25.16 8.7 47.6 45 -2.7 27.2
19:50 1023 30.21 852 25.16 8.1 46.6 43 -3.6 25.5
19:55 1023 30.21 852 25.16 8.4 47.1 40 -4.3 24.3
20:00 1023 30.21 852 25.16 8.6 47.6 40 -4 24.8
20:05 1023 30.21 852 25.16 8.3 46.9 42 -4 24.8
20:10 1023 30.21 852 25.16 7.9 46.2 42 -4.1 24.6
20:15 1023 30.21 852 25.16 8.1 46.6 42 -3.9 25
20:20 1023 30.21 852 25.16 8 46.4 45 -3.2 26.2
20:25 1023 30.21 852 25.16 7.4 45.3 47 -3.2 26.3
20:30 1023 30.21 852 25.16 7.1 44.8 45 -4 24.7
20:35 1023 30.21 852 25.16 8.2 46.7 41 -4.2 24.4
20:40 1023 30.21 852 25.16 8.5 47.3 42 -3.7 25.3
20:45 1023 30.21 852 25.16 8.5 47.4 43 -3.3 26
20:50 1023 30.21 852 25.16 8.1 46.6 42 -3.9 24.9
20:55 1023 30.21 852 25.16 8.3 46.9 42 -3.8 25.2
21:00 1023 30.21 852 25.16 8.1 46.6 43 -3.8 25.2
21:05 1023 30.21 852 25.16 7.9 46.2 44 -3.6 25.5
21:10 1023 30.21 852 25.16 7.8 46.1 43 -4 24.9
21:15 1023 30.21 852 25.16 7.6 45.7 44 -3.9 24.9
21:20 1023 30.21 852 25.16 7.4 45.3 44 -4.1 24.7
21:25 1023 30.21 852 25.16 7.4 45.3 44 -4.1 24.5
21:30 1023 30.21 852 25.16 7.2 45 48 -3 26.6
21:35 1023 30.21 852 25.16 6.6 43.9 48 -3.5 25.8
21:40 1023 30.21 852 25.16 6.4 43.5 49 -3.6 25.6
21:45 1023 30.21 852 25.16 6.5 43.6 47 -4 24.8
21:50 1023 30.21 852 25.16 7.3 45.1 44 -4.2 24.4
21:55 1023 30.21 852 25.16 7.7 45.8 43 -4 24.7
22:00 1023 30.21 852 25.16 7.7 45.8 44 -3.8 25.1
22:05 1023 30.21 852 25.16 7.3 45.2 44 -4.1 24.7
22:10 1023 30.21 852 25.16 7.5 45.5 43 -4.3 24.3
22:15 1023 30.21 852 25.16 7.6 45.6 44 -3.8 25.1
22:20 1023 30.21 852 25.16 7.1 44.9 45 -4.1 24.7
22:25 1023 30.21 852 25.16 7.1 44.8 45 -3.9 24.9
22:30 1023 30.21 852 25.16 6.7 44.1 47 -3.7 25.3
22:35 1023 30.21 852 25.16 6.6 43.8 48 -3.6 25.6
22:40 1023 30.21 852 25.16 6.5 43.8 47 -3.9 25
22:45 1023 30.21 852 25.16 7 44.5 47 -3.5 25.6
22:50 1023 30.21 852 25.16 6.7 44.1 48 -3.6 25.6
22:55 1023 30.21 852 25.16 6.1 43 50 -3.5 25.7
23:00 1023 30.21 852 25.16 5.8 42.4 50 -3.9 25
23:05 1023 30.21 852 25.16 6.4 43.6 46 -4.3 24.3
23:10 1023 30.21 852 25.16 7.1 44.8 46 -3.9 25
23:15 1023 30.21 852 25.16 7.4 45.2 43 -4.2 24.4
23:20 1023 30.21 852 25.16 7.6 45.6 46 -3.3 26.1
23:25 1023 30.21 852 25.16 7.1 44.8 48 -3.1 26.5
23:30 1023 30.21 852 25.16 7.1 44.7 47 -3.4 25.9
23:35 1023 30.21 852 25.16 7.8 46 45 -3.5 25.6
23:40 1023 30.21 852 25.16 7.7 45.8 45 -3.5 25.7
23:45 1022 30.18 852 25.16 7.6 45.7 45 -3.5 25.7
23:50 1023 30.21 852 25.16 7.2 45 47 -3.3 26
23:55 1023 30.21 852 25.16 7.2 45 46 -3.7 25.3
24:00 1022 30.18 852 25.16 7.3 45.1 45 -3.9 25